createdAt,value
2022-09-28T00:00:29.003Z,82.23
2022-09-28T00:02:57.710Z,82.38
2022-09-28T00:05:27.046Z,82.34
2022-09-28T00:07:54.295Z,82.46
2022-09-28T00:10:23.168Z,82.18
2022-09-28T00:12:50.769Z,82.32
2022-09-28T00:15:18.089Z,82.53
2022-09-28T00:17:45.055Z,82.39
2022-09-28T00:20:12.709Z,82.37
2022-09-28T00:22:39.909Z,82.53
2022-09-28T00:25:07.429Z,82.51
2022-09-28T00:27:35.289Z,82.41
2022-09-28T00:30:02.256Z,82.58
2022-09-28T00:32:29.996Z,82.50
2022-09-28T00:34:56.899Z,82.52
2022-09-28T00:37:23.848Z,82.52
2022-09-28T00:39:50.763Z,82.38
2022-09-28T00:42:22.592Z,82.48
2022-09-28T00:44:51.404Z,82.26
2022-09-28T00:47:56.326Z,82.37
2022-09-28T00:50:27.113Z,82.46
2022-09-28T00:53:27.113Z,82.38
2022-09-28T00:55:55.544Z,82.69
2022-09-28T00:58:25.858Z,82.41
2022-09-28T01:00:52.795Z,82.63
2022-09-28T01:03:19.929Z,82.58
2022-09-28T01:05:46.924Z,82.34
2022-09-28T01:08:14.368Z,82.41
2022-09-28T01:10:41.344Z,82.43
2022-09-28T01:13:08.222Z,82.26
2022-09-28T01:15:37.317Z,82.49
2022-09-28T01:18:14.703Z,82.30
2022-09-28T01:21:10.447Z,82.26
2022-09-28T01:24:02.192Z,82.43
2022-09-28T01:26:50.959Z,82.24
2022-09-28T01:29:19.723Z,82.43
2022-09-28T01:31:50.301Z,82.25
2022-09-28T01:34:30.876Z,82.19
2022-09-28T01:36:58.504Z,82.28
2022-09-28T01:39:37.840Z,82.12
2022-09-28T01:42:08.617Z,82.28
2022-09-28T01:44:39.928Z,82.11
2022-09-28T01:47:08.251Z,82.08
2022-09-28T01:49:38.865Z,81.79
2022-09-28T01:52:25.325Z,81.89
2022-09-28T01:55:00.512Z,82.00
2022-09-28T01:57:45.780Z,81.67
2022-09-28T02:00:14.261Z,81.94
2022-09-28T02:03:12.535Z,81.80
2022-09-28T02:05:41.017Z,81.73
2022-09-28T02:08:42.141Z,81.87
2022-09-28T02:11:19.040Z,81.70
2022-09-28T02:13:49.794Z,81.66
2022-09-28T02:16:36.739Z,81.34
2022-09-28T02:19:04.489Z,81.67
2022-09-28T02:22:02.239Z,81.55
2022-09-28T02:24:40.907Z,81.61
2022-09-28T02:27:14.163Z,81.34
2022-09-28T02:29:41.039Z,81.22
2022-09-28T02:32:07.895Z,81.29
2022-09-28T02:34:35.367Z,81.34
2022-09-28T02:37:02.566Z,81.23
2022-09-28T02:39:29.581Z,81.34
2022-09-28T02:42:19.079Z,81.44
2022-09-28T02:45:04.517Z,81.58
2022-09-28T02:47:48.485Z,81.34
2022-09-28T02:50:16.503Z,81.37
2022-09-28T02:53:32.806Z,81.27
2022-09-28T02:56:26.877Z,81.01
2022-09-28T02:59:28.441Z,81.15
2022-09-28T03:02:40.376Z,81.18
2022-09-28T03:05:21.200Z,81.30
2022-09-28T03:07:58.856Z,81.20
2022-09-28T03:10:48.675Z,81.27
2022-09-28T03:13:16.519Z,81.17
2022-09-28T03:15:48.627Z,81.38
2022-09-28T03:18:16.543Z,81.16
2022-09-28T03:20:43.443Z,81.08
2022-09-28T03:23:24.292Z,81.15
2022-09-28T03:25:52.035Z,81.17
2022-09-28T03:28:19.207Z,81.18
2022-09-28T03:30:46.066Z,81.04
2022-09-28T03:33:12.959Z,81.11
2022-09-28T03:35:39.948Z,80.93
2022-09-28T03:38:06.910Z,80.91
2022-09-28T03:40:33.930Z,81.14
2022-09-28T03:43:01.462Z,81.04
2022-09-28T03:45:28.464Z,81.08
2022-09-28T03:47:55.475Z,80.93
2022-09-28T03:50:22.465Z,81.04
2022-09-28T03:52:49.538Z,80.83
2022-09-28T03:55:16.735Z,81.13
2022-09-28T03:57:43.604Z,81.07
2022-09-28T04:00:10.905Z,80.96
2022-09-28T04:02:37.814Z,81.16
2022-09-28T04:05:04.846Z,81.26
2022-09-28T04:07:31.719Z,81.08
2022-09-28T04:09:59.022Z,80.94
2022-09-28T04:12:25.885Z,81.28
2022-09-28T04:14:52.768Z,81.00
2022-09-28T04:17:19.632Z,81.21
2022-09-28T04:19:47.474Z,80.98
2022-09-28T04:22:14.379Z,80.96
2022-09-28T04:24:43.562Z,80.91
2022-09-28T04:27:28.860Z,81.24
2022-09-28T04:29:55.732Z,81.36
2022-09-28T04:32:22.695Z,81.36
2022-09-28T04:34:49.701Z,81.40
2022-09-28T04:37:16.574Z,81.30
2022-09-28T04:39:48.074Z,81.43
2022-09-28T04:42:15.962Z,81.56
2022-09-28T04:44:42.847Z,81.51
2022-09-28T04:47:09.780Z,81.73
2022-09-28T04:49:38.457Z,81.56
2022-09-28T04:52:05.896Z,81.45
2022-09-28T04:54:32.765Z,81.73
2022-09-28T04:56:59.627Z,81.78
2022-09-28T04:59:26.493Z,81.82
2022-09-28T05:01:54.221Z,81.92
2022-09-28T05:04:25.085Z,81.89
2022-09-28T05:06:52.948Z,82.07
2022-09-28T05:09:19.814Z,82.05
2022-09-28T05:11:47.833Z,81.97
2022-09-28T05:14:14.756Z,82.06
2022-09-28T05:16:41.664Z,82.13
2022-09-28T05:19:08.629Z,82.05
2022-09-28T05:21:35.493Z,82.46
2022-09-28T05:24:07.338Z,82.21
2022-09-28T05:26:34.468Z,82.10
2022-09-28T05:29:01.323Z,82.18
2022-09-28T05:31:28.317Z,82.05
2022-09-28T05:33:55.400Z,82.38
2022-09-28T05:36:22.391Z,82.17
2022-09-28T05:38:49.296Z,82.20
2022-09-28T05:41:16.188Z,82.39
2022-09-28T05:43:44.159Z,82.27
2022-09-28T05:46:11.309Z,82.25
2022-09-28T05:48:38.232Z,82.06
2022-09-28T05:51:05.095Z,82.42
2022-09-28T05:53:31.972Z,82.40
2022-09-28T05:55:59.483Z,82.34
2022-09-28T05:58:26.395Z,82.19
2022-09-28T06:00:56.525Z,82.21
2022-09-28T06:03:23.573Z,82.04
2022-09-28T06:05:50.645Z,82.22
2022-09-28T06:08:17.539Z,82.14
2022-09-28T06:10:44.428Z,81.90
2022-09-28T06:13:12.137Z,82.08
2022-09-28T06:15:39.248Z,82.17
2022-09-28T06:18:08.103Z,82.22
2022-09-28T06:20:36.871Z,82.12
2022-09-28T06:23:04.300Z,82.15
2022-09-28T06:25:31.165Z,82.07
2022-09-28T06:28:02.787Z,81.96
2022-09-28T06:30:30.876Z,82.10
2022-09-28T06:32:59.278Z,82.09
2022-09-28T06:35:27.287Z,81.99
2022-09-28T06:37:54.286Z,82.05
2022-09-28T06:40:21.672Z,81.95
2022-09-28T06:43:11.344Z,81.69
2022-09-28T06:45:38.770Z,81.78
2022-09-28T06:48:06.080Z,81.74
2022-09-28T06:50:51.395Z,81.81
2022-09-28T06:53:19.035Z,81.85
2022-09-28T06:55:48.413Z,81.67
2022-09-28T06:58:17.721Z,82.05
2022-09-28T07:00:44.594Z,82.04
2022-09-28T07:03:13.239Z,82.00
2022-09-28T07:05:50.429Z,81.87
2022-09-28T07:08:17.744Z,82.12
2022-09-28T07:10:47.239Z,82.03
2022-09-28T07:13:37.608Z,81.97
2022-09-28T07:16:01.986Z,82.13
2022-09-28T07:18:29.982Z,82.38
2022-09-28T07:20:57.465Z,82.29
2022-09-28T07:23:26.290Z,82.41
2022-09-28T07:25:53.768Z,82.35
2022-09-28T07:28:21.749Z,82.61
2022-09-28T07:30:48.734Z,82.57
2022-09-28T07:33:17.290Z,82.62
2022-09-28T07:35:55.471Z,82.71
2022-09-28T07:38:22.357Z,82.76
2022-09-28T07:41:08.180Z,83.02
2022-09-28T07:43:35.440Z,83.19
2022-09-28T07:46:02.451Z,83.35
2022-09-28T07:48:37.985Z,83.32
2022-09-28T07:51:05.056Z,83.40
2022-09-28T07:53:31.922Z,83.06
2022-09-28T07:56:09.489Z,82.81
2022-09-28T07:58:37.839Z,82.65
2022-09-28T08:01:11.957Z,82.60
2022-09-28T08:03:39.190Z,82.46
2022-09-28T08:06:07.593Z,82.06
2022-09-28T08:08:35.764Z,81.90
2022-09-28T08:11:03.024Z,81.74
2022-09-28T08:13:31.178Z,81.33
2022-09-28T08:16:01.342Z,81.50
2022-09-28T08:18:28.271Z,81.46
2022-09-28T08:21:14.184Z,80.73
2022-09-28T08:23:41.201Z,80.84
2022-09-28T08:26:11.074Z,80.97
2022-09-28T08:28:42.876Z,80.98
2022-09-28T08:31:10.028Z,80.85
2022-09-28T08:33:37.100Z,80.75
2022-09-28T08:36:04.648Z,80.51
2022-09-28T08:38:32.174Z,80.25
2022-09-28T08:41:14.166Z,80.07
2022-09-28T08:44:09.216Z,80.08
2022-09-28T08:46:44.410Z,79.68
2022-09-28T08:49:30.408Z,79.75
2022-09-28T08:52:09.863Z,79.32
2022-09-28T08:54:38.860Z,79.21
2022-09-28T08:57:07.312Z,79.17
2022-09-28T08:59:53.762Z,79.25
2022-09-28T09:02:33.502Z,78.61
2022-09-28T09:05:02.726Z,77.93
2022-09-28T09:07:37.745Z,77.53
2022-09-28T09:10:13.662Z,77.18
2022-09-28T09:15:22.216Z,76.72
2022-09-28T09:18:26.296Z,76.76
2022-09-28T09:21:02.410Z,76.57
2022-09-28T09:23:50.173Z,76.72
2022-09-28T09:26:24.772Z,76.37
2022-09-28T09:29:22.987Z,76.27
2022-09-28T09:32:09.633Z,75.92
2022-09-28T09:34:55.246Z,75.58
2022-09-28T09:37:56.498Z,75.51
2022-09-28T09:40:49.327Z,75.82
2022-09-28T09:43:55.927Z,75.98
2022-09-28T09:46:25.570Z,75.58
2022-09-28T09:49:04.376Z,75.35
2022-09-28T09:51:45.405Z,74.99
2022-09-28T09:54:26.315Z,74.74
2022-09-28T09:57:03.948Z,74.20
2022-09-28T09:59:33.781Z,74.03
2022-09-28T10:02:12.987Z,74.04
2022-09-28T10:04:41.920Z,74.40
2022-09-28T10:07:10.016Z,74.01
2022-09-28T10:09:41.527Z,74.14
2022-09-28T10:12:15.254Z,74.19
2022-09-28T10:14:42.444Z,74.29
2022-09-28T10:17:09.844Z,74.03
2022-09-28T10:19:37.388Z,73.99
2022-09-28T10:22:05.693Z,73.48
2022-09-28T10:24:41.415Z,73.76
2022-09-28T10:27:16.084Z,73.32
2022-09-28T10:30:14.217Z,73.36
2022-09-28T10:32:45.951Z,73.62
2022-09-28T10:35:12.767Z,73.18
2022-09-28T10:38:04.568Z,72.67
2022-09-28T10:40:46.019Z,72.21
2022-09-28T10:43:28.891Z,72.28
2022-09-28T10:46:08.586Z,72.13
2022-09-28T10:48:56.475Z,72.27
2022-09-28T10:51:46.900Z,71.94
2022-09-28T10:54:18.246Z,71.61
2022-09-28T10:56:45.825Z,71.42
2022-09-28T10:59:31.026Z,71.20
2022-09-28T11:02:13.128Z,71.21
2022-09-28T11:04:43.847Z,70.47
2022-09-28T11:07:30.866Z,70.31
2022-09-28T11:09:58.996Z,70.14
2022-09-28T11:12:27.554Z,70.32
2022-09-28T11:15:05.818Z,70.49
2022-09-28T11:17:33.556Z,70.86
2022-09-28T11:20:26.058Z,70.52
2022-09-28T11:23:20.606Z,70.80
2022-09-28T11:26:02.947Z,70.24
2022-09-28T11:28:32.830Z,69.84
2022-09-28T11:31:00.333Z,69.82
2022-09-28T11:33:31.376Z,69.38
2022-09-28T11:36:10.374Z,68.98
2022-09-28T11:38:53.970Z,68.56
2022-09-28T11:41:31.413Z,68.43
2022-09-28T11:44:08.164Z,67.92
2022-09-28T11:47:02.424Z,67.77
2022-09-28T11:49:41.620Z,67.79
2022-09-28T11:52:36.232Z,67.10
2022-09-28T11:55:21.550Z,67.11
2022-09-28T11:58:00.176Z,66.93
2022-09-28T12:00:27.058Z,67.40
2022-09-28T12:03:09.414Z,66.95
2022-09-28T12:05:42.100Z,66.18
2022-09-28T12:08:27.660Z,66.06
2022-09-28T12:11:02.620Z,65.66
2022-09-28T12:13:33.069Z,65.26
2022-09-28T12:18:51.632Z,64.97
2022-09-28T12:21:24.344Z,64.77
2022-09-28T12:23:57.772Z,64.38
2022-09-28T12:26:27.408Z,64.75
2022-09-28T12:28:57.388Z,64.28
2022-09-28T12:31:28.713Z,64.74
2022-09-28T12:33:55.633Z,64.59
2022-09-28T12:36:47.451Z,64.53
2022-09-28T12:39:56.455Z,64.92
2022-09-28T12:42:49.381Z,64.77
2022-09-28T12:45:38.726Z,63.91
2022-09-28T12:48:23.104Z,63.55
2022-09-28T12:51:09.272Z,63.43
2022-09-28T12:54:01.254Z,63.63
2022-09-28T12:56:40.595Z,63.93
2022-09-28T12:59:25.362Z,64.26
2022-09-28T13:02:01.553Z,64.28
2022-09-28T13:04:50.961Z,64.50
2022-09-28T13:07:35.492Z,63.85
2022-09-28T13:10:14.047Z,63.42
2022-09-28T13:12:45.242Z,63.29
2022-09-28T13:15:32.568Z,62.55
2022-09-28T13:18:24.643Z,62.42
2022-09-28T13:21:11.063Z,62.90
2022-09-28T13:23:40.555Z,62.62
2022-09-28T13:26:22.772Z,62.80
2022-09-28T13:28:51.388Z,62.76
2022-09-28T13:31:19.792Z,62.66
2022-09-28T13:33:46.670Z,63.02
2022-09-28T13:36:25.202Z,62.83
2022-09-28T13:38:52.440Z,62.60
2022-09-28T13:41:29.898Z,62.52
2022-09-28T13:44:18.207Z,62.77
2022-09-28T13:46:44.990Z,62.45
2022-09-28T13:49:35.359Z,62.18
2022-09-28T13:52:40.020Z,62.20
2022-09-28T13:55:23.181Z,62.55
2022-09-28T13:57:58.988Z,62.54
2022-09-28T14:00:56.554Z,62.55
2022-09-28T14:03:47.078Z,62.57
2022-09-28T14:06:26.132Z,63.25
2022-09-28T14:09:19.013Z,63.27
2022-09-28T14:12:02.196Z,62.86
2022-09-28T14:14:49.321Z,62.73
2022-09-28T14:17:19.105Z,62.05
2022-09-28T14:20:05.228Z,61.49
2022-09-28T14:22:43.054Z,61.31
2022-09-28T14:25:15.261Z,61.46
2022-09-28T14:28:09.040Z,61.87
2022-09-28T14:30:41.957Z,61.49
2022-09-28T14:33:20.805Z,60.66
2022-09-28T14:35:47.585Z,60.96
2022-09-28T14:38:53.916Z,61.12
2022-09-28T14:41:40.424Z,60.92
2022-09-28T14:44:08.226Z,60.64
2022-09-28T14:46:35.684Z,60.42
2022-09-28T14:49:19.683Z,60.31
2022-09-28T14:51:56.223Z,60.34
2022-09-28T14:54:45.368Z,60.59
2022-09-28T14:57:19.809Z,60.70
2022-09-28T14:59:48.292Z,61.01
2022-09-28T15:02:24.836Z,60.82
2022-09-28T15:05:00.635Z,60.69
2022-09-28T15:07:30.952Z,60.10
2022-09-28T15:09:59.144Z,60.79
2022-09-28T15:12:27.600Z,60.38
2022-09-28T15:14:58.761Z,60.75
2022-09-28T15:17:29.675Z,61.10
2022-09-28T15:20:06.298Z,60.69
2022-09-28T15:22:33.654Z,61.12
2022-09-28T15:25:02.922Z,61.33
2022-09-28T15:27:37.028Z,61.44
2022-09-28T15:30:27.073Z,61.83
2022-09-28T15:32:56.818Z,62.25
2022-09-28T15:35:27.399Z,61.89
2022-09-28T15:37:55.047Z,62.37
2022-09-28T15:40:31.470Z,62.97
2022-09-28T15:42:59.478Z,62.69
2022-09-28T15:45:35.084Z,62.97
2022-09-28T15:48:31.453Z,63.51
2022-09-28T15:51:11.977Z,63.16
2022-09-28T15:53:44.089Z,63.73
2022-09-28T15:56:14.032Z,64.29
2022-09-28T15:58:40.937Z,64.15
2022-09-28T16:01:31.699Z,64.41
2022-09-28T16:03:59.753Z,64.47
2022-09-28T16:06:26.627Z,64.72
2022-09-28T16:08:53.805Z,64.69
2022-09-28T16:11:27.258Z,64.86
2022-09-28T16:14:19.133Z,64.94
2022-09-28T16:16:48.210Z,65.50
2022-09-28T16:19:24.323Z,65.27
2022-09-28T16:21:52.937Z,65.90
2022-09-28T16:24:24.783Z,66.12
2022-09-28T16:26:59.725Z,66.04
2022-09-28T16:29:40.039Z,66.26
2022-09-28T16:32:25.013Z,66.60
2022-09-28T16:35:07.809Z,66.69
2022-09-28T16:37:34.685Z,66.86
2022-09-28T16:40:01.676Z,67.06
2022-09-28T16:42:28.582Z,67.10
2022-09-28T16:44:56.329Z,67.23
2022-09-28T16:47:23.580Z,67.62
2022-09-28T16:49:51.585Z,67.67
2022-09-28T16:52:38.428Z,67.82
2022-09-28T16:58:04.994Z,68.25
2022-09-28T17:00:32.513Z,68.07
2022-09-28T17:02:59.537Z,68.07
2022-09-28T17:05:26.450Z,68.02
2022-09-28T17:08:00.804Z,67.96
2022-09-28T17:10:56.175Z,67.88
2022-09-28T17:13:34.917Z,68.26
2022-09-28T17:16:03.228Z,68.07
2022-09-28T17:18:31.971Z,68.05
2022-09-28T17:21:03.200Z,68.33
2022-09-28T17:23:30.287Z,68.43
2022-09-28T17:25:58.979Z,68.25
2022-09-28T17:28:31.731Z,68.33
2022-09-28T17:30:58.689Z,68.43
2022-09-28T17:33:25.722Z,68.66
2022-09-28T17:35:53.531Z,68.63
2022-09-28T17:38:20.445Z,68.60
2022-09-28T17:40:48.253Z,68.73
2022-09-28T17:43:15.267Z,68.78
2022-09-28T17:45:42.200Z,68.71
2022-09-28T17:48:15.826Z,68.45
2022-09-28T17:50:46.436Z,68.56
2022-09-28T17:53:13.982Z,68.59
2022-09-28T17:55:40.970Z,68.69
2022-09-28T17:58:19.342Z,68.66
2022-09-28T18:00:46.807Z,68.61
2022-09-28T18:03:16.123Z,68.60
2022-09-28T18:05:43.981Z,68.70
2022-09-28T18:08:18.269Z,68.61
2022-09-28T18:10:46.955Z,68.71
2022-09-28T18:13:14.309Z,68.77
2022-09-28T18:15:41.556Z,68.82
2022-09-28T18:18:09.660Z,68.97
2022-09-28T18:20:37.191Z,68.93
2022-09-28T18:23:04.238Z,69.24
2022-09-28T18:25:31.347Z,69.29
2022-09-28T18:28:00.035Z,69.10
2022-09-28T18:30:27.765Z,69.51
2022-09-28T18:32:54.688Z,69.15
2022-09-28T18:35:23.217Z,69.27
2022-09-28T18:37:50.589Z,69.30
2022-09-28T18:40:17.572Z,69.30
2022-09-28T18:42:44.470Z,69.52
2022-09-28T18:45:11.559Z,69.45
2022-09-28T18:47:39.093Z,69.88
2022-09-28T18:50:06.502Z,69.86
2022-09-28T18:52:36.607Z,69.47
2022-09-28T18:55:05.292Z,69.83
2022-09-28T18:57:33.589Z,69.75
2022-09-28T19:00:01.344Z,69.80
2022-09-28T19:02:28.320Z,70.09
2022-09-28T19:04:55.265Z,69.90
2022-09-28T19:07:22.238Z,69.98
2022-09-28T19:09:49.592Z,70.17
2022-09-28T19:12:17.095Z,70.08
2022-09-28T19:14:43.973Z,69.95
2022-09-28T19:17:11.133Z,70.23
2022-09-28T19:19:38.010Z,70.44
2022-09-28T19:22:05.107Z,69.99
2022-09-28T19:24:31.974Z,70.32
2022-09-28T19:26:58.851Z,70.29
2022-09-28T19:29:25.728Z,70.47
2022-09-28T19:31:52.588Z,70.44
2022-09-28T19:34:19.655Z,70.55
2022-09-28T19:36:46.632Z,70.55
2022-09-28T19:39:14.576Z,70.45
2022-09-28T19:41:43.800Z,70.52
2022-09-28T19:44:26.858Z,70.57
2022-09-28T19:46:53.689Z,70.66
2022-09-28T19:49:22.222Z,70.77
2022-09-28T19:52:14.356Z,70.79
2022-09-28T19:54:52.164Z,71.22
2022-09-28T19:57:19.657Z,71.32
2022-09-28T19:59:50.661Z,71.22
2022-09-28T20:02:19.589Z,71.23
2022-09-28T20:04:46.547Z,71.20
2022-09-28T20:07:13.553Z,71.20
2022-09-28T20:09:40.416Z,71.21
2022-09-28T20:12:07.312Z,71.13
2022-09-28T20:14:39.512Z,71.22
2022-09-28T20:17:07.480Z,71.51
2022-09-28T20:19:35.113Z,71.53
2022-09-28T20:22:03.250Z,71.62
2022-09-28T20:24:31.459Z,71.50
2022-09-28T20:26:58.555Z,71.59
2022-09-28T20:29:25.604Z,71.64
2022-09-28T20:31:52.553Z,71.92
2022-09-28T20:34:19.471Z,71.79
2022-09-28T20:36:46.401Z,72.09
2022-09-28T20:39:13.473Z,72.13
2022-09-28T20:41:41.185Z,72.32
2022-09-28T20:44:08.193Z,72.16
2022-09-28T20:46:35.587Z,72.29
2022-09-28T20:49:03.127Z,72.45
2022-09-28T20:51:30.098Z,72.53
2022-09-28T20:53:57.920Z,72.45
2022-09-28T20:56:37.619Z,72.37
2022-09-28T20:59:07.124Z,72.59
2022-09-28T21:01:34.115Z,72.79
2022-09-28T21:04:02.120Z,73.04
2022-09-28T21:06:30.451Z,73.09
2022-09-28T21:08:57.680Z,73.05
2022-09-28T21:11:25.371Z,73.21
2022-09-28T21:13:53.318Z,73.21
2022-09-28T21:16:20.308Z,73.26
2022-09-28T21:18:47.640Z,73.33
2022-09-28T21:21:15.945Z,73.13
2022-09-28T21:23:44.949Z,73.35
2022-09-28T21:26:18.974Z,73.29
2022-09-28T21:28:46.676Z,73.36
2022-09-28T21:31:13.730Z,73.56
2022-09-28T21:33:40.622Z,73.84
2022-09-28T21:36:08.345Z,73.55
2022-09-28T21:38:35.220Z,73.64
2022-09-28T21:41:02.269Z,73.75
2022-09-28T21:43:30.386Z,73.69
2022-09-28T21:45:58.206Z,73.85
2022-09-28T21:48:26.311Z,73.73
2022-09-28T21:51:03.079Z,73.95
2022-09-28T21:53:31.809Z,73.91
2022-09-28T21:56:00.174Z,74.00
2022-09-28T21:58:29.103Z,73.98
2022-09-28T22:01:18.244Z,74.32
2022-09-28T22:03:48.022Z,74.13
2022-09-28T22:06:16.290Z,74.12
2022-09-28T22:08:43.304Z,74.26
2022-09-28T22:11:14.548Z,74.29
2022-09-28T22:13:47.026Z,74.17
2022-09-28T22:16:14.859Z,74.35
2022-09-28T22:18:42.288Z,74.35
2022-09-28T22:21:15.233Z,74.41
2022-09-28T22:23:42.280Z,74.38
2022-09-28T22:26:11.537Z,74.38
2022-09-28T22:28:39.945Z,74.52
2022-09-28T22:31:06.902Z,74.61
2022-09-28T22:33:34.276Z,74.79
2022-09-28T22:36:01.348Z,74.70
2022-09-28T22:38:31.919Z,74.66
2022-09-28T22:40:59.120Z,74.69
2022-09-28T22:43:27.023Z,74.67
2022-09-28T22:46:14.193Z,74.68
2022-09-28T22:48:42.566Z,74.77
2022-09-28T22:51:09.878Z,74.71
2022-09-28T22:53:36.803Z,74.74
2022-09-28T22:56:05.615Z,74.73
2022-09-28T22:58:33.771Z,74.73
2022-09-28T23:01:15.303Z,74.85
2022-09-28T23:03:42.701Z,74.74
2022-09-28T23:06:09.916Z,74.81
2022-09-28T23:08:36.907Z,74.75
2022-09-28T23:11:03.878Z,74.87
2022-09-28T23:13:31.198Z,74.85
2022-09-28T23:15:59.890Z,74.62
2022-09-28T23:18:28.925Z,74.81
2022-09-28T23:20:56.809Z,74.75
2022-09-28T23:23:23.897Z,74.96
2022-09-28T23:25:51.789Z,74.89
2022-09-28T23:28:19.838Z,74.80
2022-09-28T23:30:47.313Z,74.76
2022-09-28T23:33:15.431Z,74.54
2022-09-28T23:35:42.497Z,74.84
2022-09-28T23:38:16.585Z,74.75
2022-09-28T23:40:44.661Z,74.79
2022-09-28T23:43:11.573Z,74.65
2022-09-28T23:45:38.624Z,74.68
2022-09-28T23:48:05.494Z,74.71
2022-09-28T23:50:32.351Z,74.64
2022-09-28T23:52:59.356Z,74.68
2022-09-28T23:55:26.272Z,74.61
2022-09-28T23:57:55.642Z,74.77
